Time;durP1;ratioP1;P1;durP2;ratioP2;P2;SDS_P1;SDS_P2;PMS_P1;PMS_P2;Temp;Humidity;BMP_temperature;BMP_pressure;BME280_temperature;BME280_humidity;BME280_pressure;Samples;Min_cycle;Max_cycle;Signal;HPM_P1;HPM_P2
2023/03/05 00:02:18;;;;;;;;;;;;;;;8.47;40.73;98862.06;4512635;31;32742;-83
2023/03/05 00:04:46;;;;;;;;;;;;;;;8.65;40.73;98862.38;4512589;31;33946;-86
2023/03/05 00:07:13;;;;;;;;;;;;;;;8.63;40.73;98869.22;4502142;31;34275;-84
2023/03/05 00:09:40;;;;;;;;;;;;;;;8.46;40.98;98868.09;4512434;31;33794;-83
2023/03/05 00:12:08;;;;;;;;;;;;;;;8.83;40.21;98876.44;4513130;31;33420;-84
2023/03/05 00:14:35;;;;;;;;;;;;;;;8.50;40.48;98872.47;4512294;31;34894;-82
2023/03/05 00:17:03;;;;;;;;;;;;;;;8.51;40.60;98874.19;4499032;31;32961;-82
2023/03/05 00:19:30;;;;;;;;;;;;;;;8.12;41.35;98880.37;4511835;31;34068;-85
2023/03/05 00:21:57;;;;;;;;;;;;;;;8.99;39.82;98878.38;4515318;31;33076;-84
2023/03/05 00:24:24;;;;;;;;;;;;;;;8.58;40.58;98885.50;4515984;31;33709;-83
2023/03/05 00:26:53;;;;;;;;;;;;;;;9.11;39.24;98882.84;4516042;31;34433;-83
2023/03/05 00:29:21;;;;;;;;;;;;;;;8.77;39.77;98888.37;4516431;31;34049;-85
2023/03/05 00:31:48;;;;;;;;;;;;;;;8.73;39.97;98889.19;4516044;31;33201;-83
2023/03/05 00:34:16;;;;;;;;;;;;;;;9.36;38.77;98889.25;4514718;31;35054;-82
2023/03/05 00:36:48;;;;;;;;;;;;;;;9.32;38.47;98882.25;4515206;31;34190;-82
2023/03/05 00:39:17;;;;;;;;;;;;;;;9.01;38.93;98880.13;4515092;31;33302;-82
2023/03/05 00:41:45;;;;;;;;;;;;;;;9.18;38.67;98885.53;4514123;31;33030;-82
2023/03/05 00:44:12;;;;;;;;;;;;;;;9.43;37.94;98876.41;4514515;31;34541;-85
2023/03/05 00:46:40;;;;;;;;;;;;;;;8.94;38.71;98869.66;4514751;31;35284;-84
2023/03/05 00:49:07;;;;;;;;;;;;;;;9.07;38.89;98874.19;4514992;31;35111;-81
2023/03/05 00:51:34;;;;;;;;;;;;;;;9.36;38.36;98864.25;4515077;31;33482;-81
2023/03/05 00:54:02;;;;;;;;;;;;;;;8.76;39.22;98865.97;4513902;31;34261;-81
2023/03/05 00:56:29;;;;;;;;;;;;;;;8.77;39.44;98866.84;4514443;31;34244;-82
2023/03/05 00:58:57;;;;;;;;;;;;;;;8.59;39.96;98857.09;4514705;31;34273;-85
2023/03/05 01:01:25;;;;;;;;;;;;;;;8.27;40.69;98874.63;4513841;31;34127;-82
2023/03/05 01:03:55;;;;;;;;;;;;;;;9.21;38.40;98864.91;4514103;31;34391;-82
2023/03/05 01:06:23;;;;;;;;;;;;;;;8.73;39.14;98865.94;4511650;31;34390;-84
2023/03/05 01:08:50;;;;;;;;;;;;;;;8.91;38.95;98867.06;4514689;31;33888;-84
2023/03/05 01:11:17;;;;;;;;;;;;;;;9.57;37.57;98865.34;4514032;31;33138;-85
2023/03/05 01:13:44;;;;;;;;;;;;;;;8.98;38.67;98867.19;4514823;31;34565;-84
2023/03/05 01:16:12;;;;;;;;;;;;;;;9.57;37.65;98862.75;4514870;31;35009;-85
2023/03/05 01:18:39;;;;;;;;;;;;;;;9.39;37.94;98863.38;4514754;31;34806;-85
2023/03/05 01:21:06;;;;;;;;;;;;;;;9.01;39.00;98866.31;4514835;31;33922;-85
2023/03/05 01:23:36;;;;;;;;;;;;;;;9.44;38.40;98861.75;4514354;31;33970;-82
2023/03/05 01:26:04;;;;;;;;;;;;;;;8.78;39.84;98869.44;4509130;31;34389;-82
2023/03/05 01:28:32;;;;;;;;;;;;;;;8.19;40.92;98866.75;4514955;31;34103;-85
2023/03/05 01:30:59;;;;;;;;;;;;;;;9.07;39.12;98863.84;4515507;31;34168;-82
2023/03/05 01:33:26;;;;;;;;;;;;;;;9.00;39.17;98860.28;4517197;31;34178;-84
2023/03/05 01:35:53;;;;;;;;;;;;;;;9.12;39.10;98862.16;4513905;31;34287;-82
2023/03/05 01:38:21;;;;;;;;;;;;;;;9.23;38.98;98868.38;4515519;31;33771;-85
2023/03/05 01:40:48;;;;;;;;;;;;;;;8.46;40.35;98868.09;4515146;31;33068;-82
2023/03/05 01:43:21;;;;;;;;;;;;;;;8.68;39.88;98865.00;4509547;31;34401;-81
2023/03/05 01:46:08;;;;;;;;;;;;;;;8.35;40.75;98869.59;4515006;31;34447;-85
2023/03/05 01:48:35;;;;;;;;;;;;;;;8.16;41.02;98856.38;4515190;31;34263;-81
2023/03/05 01:51:02;;;;;;;;;;;;;;;8.10;41.54;98864.00;4516190;31;33459;-85
2023/03/05 01:53:30;;;;;;;;;;;;;;;7.62;42.79;98875.16;4523512;31;33989;-84
2023/03/05 01:55:57;;;;;;;;;;;;;;;8.75;40.37;98866.84;4531884;31;34431;-84
2023/03/05 01:58:24;;;;;;;;;;;;;;;9.02;39.71;98862.91;4505605;31;34073;-83
2023/03/05 02:00:52;;;;;;;;;;;;;;;8.96;39.75;98866.28;4514866;31;33448;-85
2023/03/05 02:03:19;;;;;;;;;;;;;;;9.25;39.13;98866.69;4521955;31;34574;-83
2023/03/05 02:05:46;;;;;;;;;;;;;;;8.35;40.71;98860.13;4499917;31;34333;-80
2023/03/05 02:08:15;;;;;;;;;;;;;;;8.97;39.98;98857.66;4515342;31;34529;-82
2023/03/05 02:10:45;;;;;;;;;;;;;;;9.14;39.64;98868.25;4501209;31;34075;-83
2023/03/05 02:13:13;;;;;;;;;;;;;;;9.26;39.40;98867.53;4520880;31;34000;-85
2023/03/05 02:15:41;;;;;;;;;;;;;;;9.06;39.72;98866.41;4516905;31;34355;-82
2023/03/05 02:18:08;;;;;;;;;;;;;;;9.60;38.89;98873.16;4517483;31;33523;-84
2023/03/05 02:20:51;;;;;;;;;;;;;;;9.90;38.42;98868.31;4518986;31;33037;-84
2023/03/05 02:23:19;;;;;;;;;;;;;;;10.09;37.94;98860.72;4524162;31;33958;-82
2023/03/05 02:25:47;;;;;;;;;;;;;;;10.31;37.69;98854.94;4515116;31;34389;-85
2023/03/05 02:28:17;;;;;;;;;;;;;;;10.57;37.32;98854.25;4514523;31;34172;-82
2023/03/05 02:30:45;;;;;;;;;;;;;;;10.47;37.42;98849.00;4501008;31;33185;-83
2023/03/05 02:33:12;;;;;;;;;;;;;;;10.18;37.68;98850.44;4513453;31;34926;-82
2023/03/05 02:35:40;;;;;;;;;;;;;;;9.89;38.25;98855.34;4514269;31;33849;-84
2023/03/05 02:38:08;;;;;;;;;;;;;;;10.15;37.89;98848.72;4502170;31;33950;-81
2023/03/05 02:40:35;;;;;;;;;;;;;;;10.67;37.29;98856.94;4501729;31;33780;-83
2023/03/05 02:43:02;;;;;;;;;;;;;;;10.69;37.04;98850.03;4514223;31;34132;-83
2023/03/05 02:45:30;;;;;;;;;;;;;;;10.94;36.73;98852.78;4512717;31;34372;-83
2023/03/05 02:47:57;;;;;;;;;;;;;;;10.64;37.30;98849.13;4512682;31;34918;-83
2023/03/05 02:50:25;;;;;;;;;;;;;;;10.76;37.20;98847.47;4513109;31;34420;-83
2023/03/05 02:52:53;;;;;;;;;;;;;;;10.82;36.98;98857.91;4514012;31;33607;-82
2023/03/05 02:55:21;;;;;;;;;;;;;;;10.90;36.78;98845.84;4513764;31;34768;-82
2023/03/05 02:57:48;;;;;;;;;;;;;;;10.07;38.24;98854.66;4513838;31;34147;-82
2023/03/05 03:00:15;;;;;;;;;;;;;;;10.33;37.94;98837.66;4513962;31;33088;-85
2023/03/05 03:02:43;;;;;;;;;;;;;;;10.50;37.57;98840.41;4514086;31;33959;-85
2023/03/05 03:05:10;;;;;;;;;;;;;;;10.44;37.55;98848.13;4513175;31;32810;-81
2023/03/05 03:07:37;;;;;;;;;;;;;;;10.60;37.09;98837.00;4513634;31;34743;-81
2023/03/05 03:10:05;;;;;;;;;;;;;;;10.63;36.75;98839.62;4514168;31;33316;-83
2023/03/05 03:12:36;;;;;;;;;;;;;;;10.82;36.14;98837.16;4513758;31;34152;-82
2023/03/05 03:15:03;;;;;;;;;;;;;;;10.42;36.62;98836.88;4511219;31;33755;-82
2023/03/05 03:17:30;;;;;;;;;;;;;;;10.56;36.57;98839.56;4513330;31;33595;-85
2023/03/05 03:19:58;;;;;;;;;;;;;;;10.48;36.61;98844.69;4513950;31;33266;-83
2023/03/05 03:22:25;;;;;;;;;;;;;;;10.64;36.30;98838.75;4513380;31;34140;-82
2023/03/05 03:24:52;;;;;;;;;;;;;;;10.38;36.71;98836.00;4512836;31;34118;-82
2023/03/05 03:27:19;;;;;;;;;;;;;;;10.46;36.43;98833.47;4513602;31;34927;-85
2023/03/05 03:29:47;;;;;;;;;;;;;;;10.41;36.34;98833.41;4513489;31;33753;-83
2023/03/05 03:32:14;;;;;;;;;;;;;;;10.06;36.65;98833.06;4513423;31;34767;-83
2023/03/05 03:34:43;;;;;;;;;;;;;;;10.20;36.38;98823.69;4512757;31;34017;-81
2023/03/05 03:37:10;;;;;;;;;;;;;;;10.10;36.59;98818.44;4513450;31;33649;-84
2023/03/05 03:39:38;;;;;;;;;;;;;;;9.82;36.90;98828.53;4513382;31;33224;-84
2023/03/05 03:42:05;;;;;;;;;;;;;;;10.11;36.46;98821.00;4513627;31;34512;-83
2023/03/05 03:44:32;;;;;;;;;;;;;;;10.34;35.90;98822.97;4512305;31;34389;-83
2023/03/05 03:47:00;;;;;;;;;;;;;;;10.33;35.84;98826.44;4513521;31;33822;-82
2023/03/05 03:49:27;;;;;;;;;;;;;;;10.33;35.72;98827.28;4514161;31;34000;-85
2023/03/05 03:51:54;;;;;;;;;;;;;;;10.00;36.33;98822.66;4513420;31;34279;-85
2023/03/05 03:54:22;;;;;;;;;;;;;;;10.05;36.18;98831.34;4512585;31;34165;-82
2023/03/05 03:56:49;;;;;;;;;;;;;;;9.82;36.73;98833.69;4513984;31;34575;-85
2023/03/05 03:59:16;;;;;;;;;;;;;;;10.14;36.43;98826.22;4515395;31;33185;-81
2023/03/05 04:01:43;;;;;;;;;;;;;;;10.16;36.52;98818.50;4503910;31;33771;-85
2023/03/05 04:04:11;;;;;;;;;;;;;;;10.08;36.43;98825.34;4514499;31;34950;-84
2023/03/05 04:06:38;;;;;;;;;;;;;;;10.05;36.61;98820.97;4500939;31;34865;-84
2023/03/05 04:09:07;;;;;;;;;;;;;;;10.21;36.52;98815.06;4515545;31;32916;-83
2023/03/05 04:11:35;;;;;;;;;;;;;;;9.99;36.93;98821.78;4515479;31;35022;-82
2023/03/05 04:14:03;;;;;;;;;;;;;;;9.83;37.54;98821.63;4502867;31;34534;-84
2023/03/05 04:16:30;;;;;;;;;;;;;;;9.37;38.58;98826.28;4514788;31;34795;-84
2023/03/05 04:18:58;;;;;;;;;;;;;;;9.84;37.78;98815.59;4515078;31;34160;-82
2023/03/05 04:21:25;;;;;;;;;;;;;;;9.14;39.27;98824.28;4514913;31;34240;-83
2023/03/05 04:23:52;;;;;;;;;;;;;;;9.46;38.75;98828.97;4513722;31;34047;-85
2023/03/05 04:26:20;;;;;;;;;;;;;;;9.46;38.93;98828.97;4514356;31;34248;-80
2023/03/05 04:28:48;;;;;;;;;;;;;;;9.52;38.72;98812.66;4513619;31;34096;-84
2023/03/05 04:31:16;;;;;;;;;;;;;;;9.78;38.46;98815.53;4515632;31;34198;-84
2023/03/05 04:33:43;;;;;;;;;;;;;;;9.63;38.80;98819.69;4500128;31;34217;-82
2023/03/05 04:36:10;;;;;;;;;;;;;;;9.63;38.65;98814.53;4496139;31;34772;-84
2023/03/05 04:38:37;;;;;;;;;;;;;;;9.68;38.76;98820.59;4498546;31;33367;-81
2023/03/05 04:41:05;;;;;;;;;;;;;;;9.70;38.92;98818.06;4506518;31;34027;-82
2023/03/05 04:43:32;;;;;;;;;;;;;;;9.81;38.78;98810.38;4501458;31;35057;-83
2023/03/05 04:45:59;;;;;;;;;;;;;;;10.22;38.12;98816.78;4504246;31;33774;-82
2023/03/05 04:48:27;;;;;;;;;;;;;;;10.39;37.74;98806.63;4502200;31;34713;-83
2023/03/05 04:50:56;;;;;;;;;;;;;;;10.28;38.19;98812.56;4503520;31;33775;-85
2023/03/05 04:53:23;;;;;;;;;;;;;;;10.29;38.24;98816.91;4498744;31;34050;-85
2023/03/05 04:55:52;;;;;;;;;;;;;;;10.51;37.98;98810.16;4498570;31;34343;-84
2023/03/05 04:58:19;;;;;;;;;;;;;;;10.64;37.60;98807.62;4498140;31;33173;-83
2023/03/05 05:00:46;;;;;;;;;;;;;;;10.71;37.46;98809.41;4498784;31;34186;-84
2023/03/05 05:03:14;;;;;;;;;;;;;;;10.84;37.34;98809.53;4498871;31;34433;-83
2023/03/05 05:05:41;;;;;;;;;;;;;;;10.78;37.50;98804.28;4496763;31;34077;-82
2023/03/05 05:08:08;;;;;;;;;;;;;;;10.68;37.61;98799.06;4496441;31;33169;-83
2023/03/05 05:10:38;;;;;;;;;;;;;;;10.93;37.36;98801.78;4498364;31;34198;-83
2023/03/05 05:13:06;;;;;;;;;;;;;;;11.00;37.14;98806.16;4496624;31;35146;-86
2023/03/05 05:15:33;;;;;;;;;;;;;;;10.77;37.50;98808.59;4502984;31;34470;-83
2023/03/05 05:18:00;;;;;;;;;;;;;;;10.77;37.76;98810.34;4498397;31;34254;-84
2023/03/05 05:20:28;;;;;;;;;;;;;;;10.92;37.69;98818.22;4500534;31;33847;-83
2023/03/05 05:22:55;;;;;;;;;;;;;;;10.87;37.75;98817.28;4510877;31;34485;-85
2023/03/05 05:25:22;;;;;;;;;;;;;;;11.00;37.66;98816.53;4505629;31;34181;-83
2023/03/05 05:27:49;;;;;;;;;;;;;;;10.95;37.73;98820.81;4512683;31;34073;-83
2023/03/05 05:30:17;;;;;;;;;;;;;;;10.93;37.84;98825.13;4498941;31;34607;-84
2023/03/05 05:32:44;;;;;;;;;;;;;;;10.84;37.95;98820.75;4512480;31;33831;-83
2023/03/05 05:35:11;;;;;;;;;;;;;;;10.44;38.42;98825.66;4513926;31;33687;-83
2023/03/05 05:37:39;;;;;;;;;;;;;;;10.61;38.33;98823.19;4514678;31;33538;-83
2023/03/05 05:40:07;;;;;;;;;;;;;;;10.81;37.97;98820.72;4514290;31;33795;-84
2023/03/05 05:42:34;;;;;;;;;;;;;;;10.38;38.62;98824.72;4509683;31;34377;-85
2023/03/05 05:45:01;;;;;;;;;;;;;;;10.66;38.26;98821.50;4514814;31;34602;-84
2023/03/05 05:47:29;;;;;;;;;;;;;;;10.85;38.04;98813.84;4512701;31;33588;-83
2023/03/05 05:49:56;;;;;;;;;;;;;;;10.71;38.53;98809.41;4513801;31;34200;-82
2023/03/05 05:52:23;;;;;;;;;;;;;;;10.94;38.20;98832.03;4514502;31;35073;-84
2023/03/05 05:54:51;;;;;;;;;;;;;;;10.68;38.94;98840.53;4513740;31;34101;-83
2023/03/05 05:57:18;;;;;;;;;;;;;;;10.69;38.67;98844.00;4514231;31;34172;-84
2023/03/05 05:59:45;;;;;;;;;;;;;;;10.93;38.03;98844.13;4514183;31;33969;-83
2023/03/05 06:02:13;;;;;;;;;;;;;;;10.60;38.51;98846.50;4514344;31;34581;-85
2023/03/05 06:04:40;;;;;;;;;;;;;;;10.89;38.01;98844.13;4514236;31;34417;-81
2023/03/05 06:07:07;;;;;;;;;;;;;;;11.11;37.71;98845.97;4514385;31;33903;-83
2023/03/05 06:09:35;;;;;;;;;;;;;;;11.20;37.68;98840.81;4512788;31;33981;-83
2023/03/05 06:12:03;;;;;;;;;;;;;;;11.03;38.16;98852.00;4514009;31;35072;-82
2023/03/05 06:14:30;;;;;;;;;;;;;;;11.02;38.08;98851.09;4505186;31;34243;-82
2023/03/05 06:16:57;;;;;;;;;;;;;;;11.37;37.63;98840.06;4513251;31;33949;-82
2023/03/05 06:19:24;;;;;;;;;;;;;;;11.35;37.35;98849.56;4512547;31;33804;-84
2023/03/05 06:21:52;;;;;;;;;;;;;;;11.55;37.05;98853.09;4514780;31;32856;-83
2023/03/05 06:24:19;;;;;;;;;;;;;;;11.41;37.29;98847.84;4510245;31;34117;-81
2023/03/05 06:26:47;;;;;;;;;;;;;;;11.59;37.00;98843.56;4514567;31;31728;-84
2023/03/05 06:29:15;;;;;;;;;;;;;;;11.75;36.91;98845.38;4513710;31;33786;-82
2023/03/05 06:31:42;;;;;;;;;;;;;;;11.56;37.27;98852.25;4511102;31;35071;-85
2023/03/05 06:34:10;;;;;;;;;;;;;;;11.38;37.73;98845.25;4512578;31;34025;-84
2023/03/05 06:36:37;;;;;;;;;;;;;;;11.67;37.35;98842.78;4507552;31;34297;-82
2023/03/05 06:39:04;;;;;;;;;;;;;;;11.77;37.27;98847.97;4511319;31;33556;-82
2023/03/05 06:41:32;;;;;;;;;;;;;;;11.82;37.37;98841.94;4514055;31;34222;-83
2023/03/05 06:44:01;;;;;;;;;;;;;;;11.92;37.26;98842.84;4513839;31;34082;-82
2023/03/05 06:46:29;;;;;;;;;;;;;;;11.90;37.21;98844.59;4512404;31;33339;-85
2023/03/05 06:48:57;;;;;;;;;;;;;;;11.86;37.31;98845.44;4514101;31;33748;-84
2023/03/05 06:51:28;;;;;;;;;;;;;;;12.03;36.92;98841.13;4513260;31;35179;-83
2023/03/05 06:53:58;;;;;;;;;;;;;;;11.80;36.25;98848.00;4513925;31;35139;-85
2023/03/05 06:56:25;;;;;;;;;;;;;;;11.27;37.51;98849.53;4514207;31;34016;-82
2023/03/05 06:58:53;;;;;;;;;;;;;;;11.57;37.64;98843.59;4513958;31;35032;-81
2023/03/05 07:01:20;;;;;;;;;;;;;;;10.37;38.93;98846.31;4513301;31;34936;-82
2023/03/05 07:03:48;;;;;;;;;;;;;;;9.96;39.33;98855.44;4513045;31;33351;-82
2023/03/05 07:06:16;;;;;;;;;;;;;;;10.62;38.21;98850.84;4513079;31;33064;-84
2023/03/05 07:08:46;;;;;;;;;;;;;;;10.69;37.77;98849.19;4513287;31;34080;-83
2023/03/05 07:11:17;;;;;;;;;;;;;;;9.96;39.11;98858.03;4514784;31;34159;-83
2023/03/05 07:13:47;;;;;;;;;;;;;;;9.93;39.46;98847.63;4513651;31;34932;-84
2023/03/05 07:16:18;;;;;;;;;;;;;;;10.49;38.12;98854.19;4513921;31;33640;-85
2023/03/05 07:18:46;;;;;;;;;;;;;;;8.49;42.29;98855.22;4512582;31;35180;-85
2023/03/05 07:21:14;;;;;;;;;;;;;;;8.84;42.07;98860.06;4513109;31;33822;-82
2023/03/05 07:23:41;;;;;;;;;;;;;;;9.19;41.65;98858.81;4512903;31;34958;-84
2023/03/05 07:26:09;;;;;;;;;;;;;;;9.01;41.76;98853.41;4514744;31;32699;-82
2023/03/05 07:28:36;;;;;;;;;;;;;;;9.15;42.10;98851.88;4512904;31;33860;-82
2023/03/05 07:31:05;;;;;;;;;;;;;;;8.85;42.50;98859.22;4512561;31;33816;-84
2023/03/05 07:33:33;;;;;;;;;;;;;;;8.44;43.57;98856.84;4508190;31;35614;-82
2023/03/05 07:36:03;;;;;;;;;;;;;;;9.04;42.37;98855.16;4513849;31;34376;-85
2023/03/05 07:38:30;;;;;;;;;;;;;;;8.66;43.02;98853.75;4513455;31;35029;-84
2023/03/05 07:41:04;;;;;;;;;;;;;;;8.16;44.29;98858.06;4513414;31;35128;-85
2023/03/05 07:43:32;;;;;;;;;;;;;;;8.83;43.02;98861.78;4513070;31;34538;-83
2023/03/05 07:45:59;;;;;;;;;;;;;;;8.62;43.27;98854.56;4513592;31;34460;-85
2023/03/05 07:48:27;;;;;;;;;;;;;;;8.00;44.83;98851.78;4510264;31;35034;-83
2023/03/05 07:51:04;;;;;;;;;;;;;;;8.85;42.79;98854.91;4512110;31;34445;-85
2023/03/05 07:53:31;;;;;;;;;;;;;;;8.70;43.93;98847.78;4512941;31;33983;-84
2023/03/05 07:55:59;;;;;;;;;;;;;;;9.11;42.35;98852.69;4513234;31;33085;-84
2023/03/05 07:58:26;;;;;;;;;;;;;;;8.53;43.72;98842.37;4513115;31;34962;-83
2023/03/05 08:00:53;;;;;;;;;;;;;;;8.64;43.51;98854.59;4513091;31;35243;-85
2023/03/05 08:03:21;;;;;;;;;;;;;;;7.90;44.98;98849.87;4512452;31;33256;-82
2023/03/05 08:05:48;;;;;;;;;;;;;;;8.07;45.07;98856.22;4511874;31;34082;-83
2023/03/05 08:08:15;;;;;;;;;;;;;;;8.37;44.46;98844.63;4512814;31;34161;-84
2023/03/05 08:10:43;;;;;;;;;;;;;;;7.98;45.51;98850.87;4513282;31;32641;-82
2023/03/05 08:13:10;;;;;;;;;;;;;;;8.95;42.94;98845.56;4512782;31;34086;-85
2023/03/05 08:15:37;;;;;;;;;;;;;;;8.64;43.61;98849.44;4512216;31;33575;-82
2023/03/05 08:18:05;;;;;;;;;;;;;;;8.97;42.78;98854.22;4512923;31;34015;-83
2023/03/05 08:20:35;;;;;;;;;;;;;;;8.86;43.07;98848.00;4512846;31;34117;-80
2023/03/05 08:23:03;;;;;;;;;;;;;;;8.57;44.43;98852.75;4512880;31;34457;-85
2023/03/05 08:25:30;;;;;;;;;;;;;;;7.75;45.82;98859.06;4511897;31;34262;-80
2023/03/05 08:27:57;;;;;;;;;;;;;;;7.72;46.27;98858.13;4512774;31;34260;-84
2023/03/05 08:30:26;;;;;;;;;;;;;;;8.81;43.64;98852.25;4511576;31;35020;-81
2023/03/05 08:32:54;;;;;;;;;;;;;;;9.57;42.57;98852.41;4511424;31;34427;-85
2023/03/05 08:35:21;;;;;;;;;;;;;;;9.66;41.88;98840.44;4509402;31;33632;-82
2023/03/05 08:37:48;;;;;;;;;;;;;;;9.79;41.40;98840.56;4512183;31;34211;-82
2023/03/05 08:40:19;;;;;;;;;;;;;;;9.17;42.59;98850.19;4512469;31;34426;-83
2023/03/05 08:42:46;;;;;;;;;;;;;;;9.69;41.29;98857.72;4512832;31;34612;-83
2023/03/05 08:45:13;;;;;;;;;;;;;;;9.90;41.17;98844.13;4511502;31;33432;-83
2023/03/05 08:47:41;;;;;;;;;;;;;;;9.75;41.34;98843.13;4514882;31;34181;-81
2023/03/05 08:50:08;;;;;;;;;;;;;;;8.38;44.04;98828.34;4513265;31;34189;-82
2023/03/05 08:52:35;;;;;;;;;;;;;;;8.50;44.55;98831.12;4514960;31;33727;-83
2023/03/05 08:55:03;;;;;;;;;;;;;;;8.93;43.78;98832.59;4512405;31;34219;-81
2023/03/05 08:57:30;;;;;;;;;;;;;;;8.75;44.17;98828.06;4514222;31;34110;-82
2023/03/05 08:59:57;;;;;;;;;;;;;;;9.27;43.22;98831.34;4513173;31;35152;-82
2023/03/05 09:02:25;;;;;;;;;;;;;;;8.28;45.23;98833.31;4513557;31;33649;-81
2023/03/05 09:04:52;;;;;;;;;;;;;;;9.22;43.61;98840.75;4513938;31;33732;-82
2023/03/05 09:07:20;;;;;;;;;;;;;;;9.46;43.36;98839.31;4504731;31;34527;-81
2023/03/05 09:09:47;;;;;;;;;;;;;;;9.53;43.23;98830.78;4513873;31;34909;-85
2023/03/05 09:12:14;;;;;;;;;;;;;;;9.64;43.06;98824.00;4515064;31;33673;-84
2023/03/05 09:14:42;;;;;;;;;;;;;;;8.94;44.25;98834.37;4514913;31;32666;-85
2023/03/05 09:17:09;;;;;;;;;;;;;;;9.47;43.46;98836.78;4512904;31;34829;-82
2023/03/05 09:19:37;;;;;;;;;;;;;;;8.61;45.43;98837.31;4513817;31;34087;-84
2023/03/05 09:22:04;;;;;;;;;;;;;;;9.26;44.53;98832.19;4512926;31;34907;-82
2023/03/05 09:24:31;;;;;;;;;;;;;;;10.29;41.82;98822.94;4512643;31;34122;-82
2023/03/05 09:26:59;;;;;;;;;;;;;;;9.84;42.88;98828.53;4512115;31;34109;-85
2023/03/05 09:29:26;;;;;;;;;;;;;;;8.27;46.79;98829.00;4512969;31;34958;-82
2023/03/05 09:31:54;;;;;;;;;;;;;;;9.24;44.57;98820.97;4513524;31;34232;-83
2023/03/05 09:34:21;;;;;;;;;;;;;;;9.64;43.56;98821.44;4514787;31;34013;-82
2023/03/05 09:36:49;;;;;;;;;;;;;;;8.45;46.02;98833.63;4513215;31;34185;-83
2023/03/05 09:39:16;;;;;;;;;;;;;;;8.15;46.87;98823.66;4513484;31;35164;-83
2023/03/05 09:41:43;;;;;;;;;;;;;;;8.87;45.66;98816.16;4512407;31;33498;-84
2023/03/05 09:44:29;;;;;;;;;;;;;;;9.54;43.99;98832.50;4514444;31;33058;-82
2023/03/05 09:47:08;;;;;;;;;;;;;;;9.87;43.00;98816.47;4511623;31;33732;-83
2023/03/05 09:49:42;;;;;;;;;;;;;;;9.16;44.11;98819.97;4507103;31;34084;-83
2023/03/05 09:52:28;;;;;;;;;;;;;;;9.09;44.34;98815.62;4511515;31;34395;-81
2023/03/05 09:54:56;;;;;;;;;;;;;;;9.41;43.64;98792.69;4506931;31;34145;-82
2023/03/05 09:57:35;;;;;;;;;;;;;;;10.35;40.48;98809.19;4506822;31;33644;-81
2023/03/05 10:00:07;;;;;;;;;;;;;;;10.38;41.10;98801.41;4505298;31;33795;-81
2023/03/05 10:02:39;;;;;;;;;;;;;;;9.13;42.85;98808.72;4503391;31;33883;-83
2023/03/05 10:05:25;;;;;;;;;;;;;;;8.20;44.68;98798.75;4503164;31;34212;-81
2023/03/05 10:07:53;;;;;;;;;;;;;;;8.88;43.04;98802.38;4506559;31;35003;-82
2023/03/05 10:10:32;;;;;;;;;;;;;;;8.77;43.70;98792.75;4504989;31;32758;-82
2023/03/05 10:13:00;;;;;;;;;;;;;;;9.28;42.41;98793.44;4502133;31;34689;-81
2023/03/05 10:15:31;;;;;;;;;;;;;;;9.29;42.40;98797.75;4503163;31;32797;-82
2023/03/05 10:18:08;;;;;;;;;;;;;;;8.70;43.52;98790.06;4511535;31;34872;-80
2023/03/05 10:20:38;;;;;;;;;;;;;;;8.25;44.81;98791.94;4511207;31;33994;-84
2023/03/05 10:23:12;;;;;;;;;;;;;;;9.07;42.96;98790.56;4510541;31;34509;-82
2023/03/05 10:26:09;;;;;;;;;;;;;;;9.45;42.00;98786.72;4506771;31;33452;-84
2023/03/05 10:28:46;;;;;;;;;;;;;;;9.82;40.76;98781.94;4501009;31;35022;-84
2023/03/05 10:31:20;;;;;;;;;;;;;;;10.02;40.63;98771.75;4510831;31;34379;-82
2023/03/05 10:33:52;;;;;;;;;;;;;;;9.73;41.31;98750.75;4502459;31;32720;-81
2023/03/05 10:36:26;;;;;;;;;;;;;;;10.67;39.58;98765.31;4505096;31;34254;-81
2023/03/05 10:38:58;;;;;;;;;;;;;;;11.20;37.80;98770.78;4504894;31;34134;-81
2023/03/05 10:41:37;;;;;;;;;;;;;;;9.80;40.46;98765.50;4513138;31;34660;-80
2023/03/05 10:44:10;;;;;;;;;;;;;;;10.03;40.58;98760.50;4510704;31;33351;-84
2023/03/05 10:46:38;;;;;;;;;;;;;;;10.28;40.01;98772.00;4508000;31;33550;-82
2023/03/05 10:49:25;;;;;;;;;;;;;;;8.89;42.46;98773.09;4509147;31;34303;-82
2023/03/05 10:52:17;;;;;;;;;;;;;;;9.47;41.32;98760.84;4504809;31;35358;-82
2023/03/05 10:54:45;;;;;;;;;;;;;;;9.54;40.96;98754.88;4503808;31;33352;-82
2023/03/05 10:57:16;;;;;;;;;;;;;;;9.56;40.46;98753.19;4513535;31;34430;-84
2023/03/05 10:59:49;;;;;;;;;;;;;;;10.38;39.14;98747.88;4510610;31;33966;-84
2023/03/05 11:02:17;;;;;;;;;;;;;;;9.79;40.04;98747.38;4501058;31;35051;-84
2023/03/05 11:04:46;;;;;;;;;;;;;;;9.86;39.94;98744.84;4511910;31;32872;-80
2023/03/05 11:07:13;;;;;;;;;;;;;;;10.33;39.30;98734.00;4505306;31;33831;-80
2023/03/05 11:09:42;;;;;;;;;;;;;;;9.60;40.85;98733.38;4512847;31;34274;-83
2023/03/05 11:12:11;;;;;;;;;;;;;;;9.93;39.58;98727.66;4512441;31;34377;-80
2023/03/05 11:14:57;;;;;;;;;;;;;;;9.56;40.20;98721.28;4513877;31;34072;-81
2023/03/05 11:17:28;;;;;;;;;;;;;;;10.17;39.10;98729.56;4506656;31;34851;-81
2023/03/05 11:19:57;;;;;;;;;;;;;;;9.44;40.27;98727.19;4505722;31;34032;-82
2023/03/05 11:22:31;;;;;;;;;;;;;;;9.27;40.55;98722.69;4504768;31;33836;-81
2023/03/05 11:25:11;;;;;;;;;;;;;;;9.54;40.59;98712.63;4512415;31;34371;-81
2023/03/05 11:27:45;;;;;;;;;;;;;;;8.89;41.33;98730.00;4513257;31;32397;-81
2023/03/05 11:30:29;;;;;;;;;;;;;;;9.92;39.87;98731.06;4510189;31;34762;-81
2023/03/05 11:33:07;;;;;;;;;;;;;;;9.68;39.62;98719.66;4512709;31;34506;-83
2023/03/05 11:35:37;;;;;;;;;;;;;;;9.45;40.02;98718.56;4514522;31;33836;-83
2023/03/05 11:38:06;;;;;;;;;;;;;;;10.57;37.90;98711.69;4512009;31;34078;-82
2023/03/05 11:40:34;;;;;;;;;;;;;;;10.23;38.76;98707.16;4505508;31;34683;-83
2023/03/05 11:43:04;;;;;;;;;;;;;;;9.97;39.33;98703.50;4505610;31;33943;-80
2023/03/05 11:45:32;;;;;;;;;;;;;;;10.37;38.39;98693.44;4513413;31;33589;-80
2023/03/05 11:48:05;;;;;;;;;;;;;;;10.85;36.90;98689.37;4511347;31;32668;-80
2023/03/05 11:50:34;;;;;;;;;;;;;;;10.79;37.67;98703.16;4511768;31;34962;-80
2023/03/05 11:53:17;;;;;;;;;;;;;;;11.20;36.49;98685.16;4512303;31;33771;-80
2023/03/05 11:55:55;;;;;;;;;;;;;;;10.67;37.26;98691.00;4498987;31;34521;-83
2023/03/05 11:58:41;;;;;;;;;;;;;;;11.38;35.98;98678.28;4511934;31;33503;-82
2023/03/05 12:01:19;;;;;;;;;;;;;;;10.58;37.31;98679.75;4514028;31;35054;-80
2023/03/05 12:03:47;;;;;;;;;;;;;;;10.26;38.32;98677.81;4496832;31;34062;-80
2023/03/05 12:06:28;;;;;;;;;;;;;;;10.98;37.22;98675.56;4498259;31;34440;-80
2023/03/05 12:08:57;;;;;;;;;;;;;;;9.98;38.41;98676.75;4498177;31;33739;-81
2023/03/05 12:11:26;;;;;;;;;;;;;;;9.82;39.04;98670.59;4497254;31;33893;-79
2023/03/05 12:14:18;;;;;;;;;;;;;;;10.38;38.31;98659.78;4496941;31;34374;-80
2023/03/05 12:16:57;;;;;;;;;;;;;;;9.66;39.73;98661.84;4491358;31;34145;-79
2023/03/05 12:19:31;;;;;;;;;;;;;;;9.93;39.97;98658.59;4508934;31;34378;-78
2023/03/05 12:21:59;;;;;;;;;;;;;;;10.20;38.79;98652.72;4516136;31;35054;-82
2023/03/05 12:24:26;;;;;;;;;;;;;;;9.62;39.47;98644.56;4516225;31;34349;-79
2023/03/05 12:27:04;;;;;;;;;;;;;;;10.04;38.61;98637.97;4515631;31;34269;-80
2023/03/05 12:29:32;;;;;;;;;;;;;;;9.62;38.67;98647.16;4515839;31;33423;-81
2023/03/05 12:31:59;;;;;;;;;;;;;;;9.73;38.78;98632.53;4512167;31;33893;-79
2023/03/05 12:34:40;;;;;;;;;;;;;;;9.47;38.96;98631.47;4510718;31;35145;-83
2023/03/05 12:37:11;;;;;;;;;;;;;;;10.01;37.94;98632.75;4504201;31;34042;-83
2023/03/05 12:39:51;;;;;;;;;;;;;;;10.10;37.36;98630.22;4499951;31;34138;-83
2023/03/05 12:42:27;;;;;;;;;;;;;;;10.19;36.49;98622.50;4499834;31;34252;-83
2023/03/05 12:45:10;;;;;;;;;;;;;;;10.47;36.86;98615.75;4514507;31;34515;-82
2023/03/05 12:47:38;;;;;;;;;;;;;;;11.35;34.70;98611.66;4515887;31;34198;-82
2023/03/05 12:50:27;;;;;;;;;;;;;;;11.26;35.63;98609.06;4514208;31;33150;-81
2023/03/05 12:52:56;;;;;;;;;;;;;;;10.82;36.35;98603.78;4505065;31;33971;-83
2023/03/05 12:55:23;;;;;;;;;;;;;;;10.59;36.27;98609.75;4515630;31;34157;-82
2023/03/05 12:58:11;;;;;;;;;;;;;;;11.10;34.97;98605.59;4514637;31;34279;-81
2023/03/05 13:00:42;;;;;;;;;;;;;;;11.14;35.42;98607.31;4507217;31;34585;-80
2023/03/05 13:03:16;;;;;;;;;;;;;;;10.88;35.95;98603.81;4507286;31;33945;-81
2023/03/05 13:05:51;;;;;;;;;;;;;;;11.12;35.72;98605.56;4514628;31;33807;-82